Time;durP1;ratioP1;P1;durP2;ratioP2;P2;SDS_P1;SDS_P2;PMS_P1;PMS_P2;Temp;Humidity;BMP_temperature;BMP_pressure;BME280_temperature;BME280_humidity;BME280_pressure;Samples;Min_cycle;Max_cycle;Signal;HPM_P1;HPM_P2
2022/06/25 00:01:13;;;;;;;9.30;6.95;;;17.80;99.90;;;;;;6194144;23;20020;-83
2022/06/25 00:03:43;;;;;;;8.48;6.45;;;17.90;99.90;;;;;;6219131;23;20024;-83
2022/06/25 00:06:09;;;;;;;6.22;5.60;;;17.80;99.90;;;;;;6194035;23;20011;-83
2022/06/25 00:08:36;;;;;;;10.20;7.05;;;17.80;99.90;;;;;;6218671;23;20016;-83
2022/06/25 00:11:03;;;;;;;7.93;6.45;;;17.90;99.90;;;;;;6219294;23;20020;-83
2022/06/25 00:13:29;;;;;;;8.57;6.00;;;17.80;99.90;;;;;;6245498;23;20020;-83
2022/06/25 00:15:54;;;;;;;9.48;6.05;;;17.80;99.90;;;;;;6219142;23;20058;-83
2022/06/25 00:18:22;;;;;;;9.63;6.10;;;17.70;99.90;;;;;;6218558;23;20016;-83
2022/06/25 00:20:47;;;;;;;9.65;6.55;;;17.70;99.90;;;;;;6219302;23;20031;-83
2022/06/25 00:23:14;;;;;;;9.07;6.30;;;17.70;99.90;;;;;;6219204;23;20095;-83
2022/06/25 00:25:40;;;;;;;6.57;5.82;;;17.70;99.90;;;;;;6218400;23;20144;-83
2022/06/25 00:28:06;;;;;;;6.57;5.82;;;17.70;99.90;;;;;;6194431;23;20514;-83
2022/06/25 00:30:32;;;;;;;;;;;17.70;99.90;;;;;;6245401;23;20051;-83
2022/06/25 00:32:58;;;;;;;7.50;5.47;;;17.60;99.90;;;;;;6169005;23;20225;-83
2022/06/25 00:35:24;;;;;;;7.15;5.85;;;17.60;99.90;;;;;;6218579;23;20018;-83
2022/06/25 00:37:50;;;;;;;6.38;4.88;;;17.60;99.90;;;;;;6245675;23;20020;-83
2022/06/25 00:40:16;;;;;;;9.32;5.75;;;17.60;99.90;;;;;;6193829;23;20143;-83
2022/06/25 00:42:49;;;;;;;5.07;4.53;;;17.60;99.90;;;;;;6245165;23;20479;-83
2022/06/25 00:45:15;;;;;;;6.88;5.35;;;17.60;99.90;;;;;;6168802;23;20016;-83
2022/06/25 00:47:41;;;;;;;6.32;4.93;;;17.50;99.90;;;;;;6193203;23;20410;-83
2022/06/25 00:50:08;;;;;;;5.97;5.13;;;17.50;99.90;;;;;;6245696;23;20070;-83
2022/06/25 00:52:34;;;;;;;5.63;5.00;;;18.70;99.90;;;;;;6244988;23;20238;-83
2022/06/25 00:55:12;;;;;;;7.00;4.82;;;17.50;99.90;;;;;;6218670;23;20444;-83
2022/06/25 00:57:43;;;;;;;7.25;5.28;;;17.50;99.90;;;;;;6193274;23;20031;-83
2022/06/25 01:00:12;;;;;;;8.23;5.13;;;17.50;99.90;;;;;;6193655;23;20345;-83
2022/06/25 01:02:40;;;;;;;7.40;4.57;;;17.50;99.90;;;;;;6218203;23;20016;-83
2022/06/25 01:05:08;;;;;;;8.82;5.13;;;17.40;99.90;;;;;;6218678;23;20023;-83
2022/06/25 01:07:35;;;;;;;6.82;5.28;;;17.40;99.90;;;;;;6218705;23;20059;-83
2022/06/25 01:10:02;;;;;;;5.70;4.50;;;17.40;99.90;;;;;;6218093;23;20016;-83
2022/06/25 01:12:28;;;;;;;7.93;5.13;;;17.40;99.90;;;;;;6244891;23;20020;-83
2022/06/25 01:15:09;;;;;;;6.80;5.00;;;17.40;99.90;;;;;;6193506;23;20055;-83
2022/06/25 01:17:43;;;;;;;6.28;5.00;;;17.40;99.90;;;;;;6218330;23;20020;-83
2022/06/25 01:20:10;;;;;;;5.45;4.88;;;17.40;99.90;;;;;;6218472;23;20024;-83
2022/06/25 01:22:36;;;;;;;8.30;5.57;;;17.40;99.90;;;;;;6193072;23;20031;-83
2022/06/25 01:25:02;;;;;;;6.87;5.30;;;17.40;99.90;;;;;;6245290;23;20016;-83
2022/06/25 01:27:27;;;;;;;7.63;5.05;;;17.30;99.90;;;;;;6218140;23;20048;-83
2022/06/25 01:29:53;;;;;;;5.60;4.80;;;17.30;99.90;;;;;;6245088;23;20020;-83
2022/06/25 01:32:19;;;;;;;7.50;5.80;;;17.30;99.90;;;;;;6193859;23;20314;-83
2022/06/25 01:34:45;;;;;;;6.03;5.13;;;17.20;99.90;;;;;;6193074;23;20086;-83
2022/06/25 01:37:10;;;;;;;5.83;5.27;;;17.30;99.90;;;;;;6168655;23;20024;-83
2022/06/25 01:39:36;;;;;;;8.55;5.45;;;17.20;99.90;;;;;;6217911;23;20012;-83
2022/06/25 01:42:03;;;;;;;6.90;5.18;;;17.20;99.90;;;;;;6168463;23;20142;-83
2022/06/25 01:44:29;;;;;;;6.90;5.25;;;17.20;99.90;;;;;;6192952;23;20433;-83
2022/06/25 01:46:56;;;;;;;9.32;4.90;;;17.20;99.90;;;;;;6193354;23;20062;-83
2022/06/25 01:49:22;;;;;;;5.95;5.05;;;17.20;99.90;;;;;;6245015;23;20020;-83
2022/06/25 01:51:48;;;;;;;5.72;4.90;;;17.10;99.90;;;;;;6244625;23;20047;-83
2022/06/25 01:54:14;;;;;;;5.32;4.53;;;17.10;99.90;;;;;;6193309;23;20063;-83
2022/06/25 01:56:40;;;;;;;6.95;5.22;;;17.10;99.90;;;;;;6244384;23;20016;-83
2022/06/25 01:59:06;;;;;;;6.18;5.30;;;17.10;99.90;;;;;;6245208;23;20027;-83
2022/06/25 02:01:32;;;;;;;5.73;4.40;;;17.10;99.90;;;;;;6192974;23;20096;-83
2022/06/25 02:03:58;;;;;;;7.32;5.00;;;17.00;99.90;;;;;;6218719;23;20031;-83
2022/06/25 02:06:23;;;;;;;7.05;4.90;;;17.00;99.90;;;;;;6245158;23;20012;-82
2022/06/25 02:08:49;;;;;;;5.15;4.65;;;16.90;99.90;;;;;;6217555;23;20024;-83
2022/06/25 02:11:15;;;;;;;7.57;5.35;;;16.90;99.90;;;;;;6218388;23;20023;-83
2022/06/25 02:13:40;;;;;;;5.87;4.90;;;16.90;99.90;;;;;;6217946;23;20436;-83
2022/06/25 02:16:06;;;;;;;5.97;4.80;;;16.90;99.90;;;;;;6168606;23;20247;-83
2022/06/25 02:18:32;;;;;;;6.65;5.43;;;16.90;99.90;;;;;;6244608;23;20341;-83
2022/06/25 02:20:58;;;;;;;6.13;5.35;;;16.90;99.90;;;;;;6219346;23;20027;-83
2022/06/25 02:23:24;;;;;;;6.80;5.47;;;16.90;99.90;;;;;;6220334;23;20024;-83
2022/06/25 02:25:50;;;;;;;7.03;4.75;;;16.90;99.90;;;;;;6219600;23;20343;-83
2022/06/25 02:28:16;;;;;;;;;;;16.90;99.90;;;;;;6195547;23;20514;-83
2022/06/25 02:30:43;;;;;;;5.47;4.43;;;16.80;99.90;;;;;;6246150;23;19915;-83
2022/06/25 02:33:11;;;;;;;;;;;16.80;99.90;;;;;;6220882;23;20031;-82
2022/06/25 02:35:39;;;;;;;5.60;4.25;;;16.90;99.90;;;;;;6194721;23;20334;-83
2022/06/25 02:38:08;;;;;;;6.05;4.90;;;16.70;99.90;;;;;;6221015;23;20023;-82
2022/06/25 02:40:34;;;;;;;9.27;5.07;;;16.80;99.90;;;;;;6219598;23;20020;-83
2022/06/25 02:43:01;;;;;;;6.07;5.10;;;16.80;99.90;;;;;;6220120;23;20027;-83
2022/06/25 02:45:27;;;;;;;7.68;4.65;;;16.80;99.90;;;;;;6195206;23;20047;-83
2022/06/25 02:47:53;;;;;;;6.05;5.25;;;16.80;99.90;;;;;;6194370;23;20024;-83
2022/06/25 02:50:18;;;;;;;7.43;5.10;;;16.70;99.90;;;;;;6219892;23;20476;-83
2022/06/25 02:52:44;;;;;;;5.90;5.07;;;16.70;99.90;;;;;;6219096;23;20027;-83
2022/06/25 02:55:10;;;;;;;7.83;5.90;;;16.70;99.90;;;;;;6219373;23;20251;-83
2022/06/25 03:00:20;;;;;;;6.88;5.40;;;16.70;99.90;;;;;;6220132;23;20027;-82
2022/06/25 03:02:45;;;;;;;7.97;5.13;;;16.70;99.90;;;;;;6219342;23;20345;-83
2022/06/25 03:05:11;;;;;;;7.00;5.63;;;16.70;99.90;;;;;;6246529;23;20016;-83
2022/06/25 03:07:37;;;;;;;8.10;5.68;;;16.60;99.90;;;;;;6219458;23;20094;-84
2022/06/25 03:10:03;;;;;;;6.70;5.20;;;16.60;99.90;;;;;;6219793;23;20341;-83
2022/06/25 03:12:29;;;;;;;7.20;6.38;;;16.60;99.90;;;;;;6219730;23;20016;-82
2022/06/25 03:14:55;;;;;;;9.10;5.68;;;16.60;99.90;;;;;;6246100;23;20097;-83
2022/06/25 03:17:20;;;;;;;7.75;5.93;;;16.60;99.90;;;;;;6194896;23;20031;-82
2022/06/25 03:19:46;;;;;;;6.45;4.85;;;16.60;99.90;;;;;;6169397;23;20095;-83
2022/06/25 03:22:12;;;;;;;8.47;5.67;;;16.60;99.90;;;;;;6219685;23;20146;-83
2022/06/25 03:24:37;;;;;;;7.07;5.53;;;16.50;99.90;;;;;;6219753;23;20564;-83
2022/06/25 03:27:03;;;;;;;6.13;5.55;;;16.50;99.90;;;;;;6219456;23;20310;-83
2022/06/25 03:29:29;;;;;;;7.13;5.85;;;16.60;99.90;;;;;;6194331;23;20020;-83
2022/06/25 03:31:56;;;;;;;7.00;5.53;;;16.50;99.90;;;;;;6218463;23;20059;-83
2022/06/25 03:34:21;;;;;;;7.40;5.72;;;16.50;99.90;;;;;;6219977;23;20301;-83
2022/06/25 03:36:47;;;;;;;7.45;5.35;;;16.50;99.90;;;;;;6245739;23;20471;-83
2022/06/25 03:39:13;;;;;;;7.10;5.43;;;16.50;99.90;;;;;;6219510;23;20095;-83
2022/06/25 03:41:42;;;;;;;6.45;5.68;;;16.50;99.90;;;;;;6219387;23;20016;-83
2022/06/25 03:44:10;;;;;;;6.80;5.43;;;16.50;99.90;;;;;;6219049;23;20016;-83
2022/06/25 03:46:38;;;;;;;9.50;6.72;;;16.50;99.90;;;;;;6194126;23;20020;-83
2022/06/25 03:49:05;;;;;;;8.00;6.00;;;16.40;99.90;;;;;;6245752;23;20051;-83
2022/06/25 03:51:31;;;;;;;7.03;5.57;;;16.50;99.90;;;;;;6219500;23;20023;-83
2022/06/25 03:53:57;;;;;;;8.48;5.95;;;17.20;99.90;;;;;;6245602;23;20016;-83
2022/06/25 03:56:23;;;;;;;13.13;7.63;;;16.40;99.90;;;;;;6219545;23;20024;-83
2022/06/25 03:58:52;;;;;;;8.10;5.82;;;16.50;99.90;;;;;;6219471;23;20027;-83
2022/06/25 04:01:18;;;;;;;8.98;7.45;;;16.50;99.90;;;;;;6246061;23;20086;-83
2022/06/25 04:03:43;;;;;;;6.20;5.35;;;16.50;99.90;;;;;;6218664;23;20012;-83
2022/06/25 04:06:10;;;;;;;9.63;5.43;;;16.50;99.90;;;;;;6246010;23;20016;-83
2022/06/25 04:08:36;;;;;;;10.43;6.28;;;16.40;99.90;;;;;;6246073;23;20083;-83
2022/06/25 04:11:02;;;;;;;7.18;5.43;;;16.40;99.90;;;;;;6245542;23;20099;-83
2022/06/25 04:13:27;;;;;;;7.43;5.68;;;16.40;99.90;;;;;;6245932;23;20020;-82
2022/06/25 04:15:53;;;;;;;10.07;6.53;;;16.40;99.90;;;;;;6245316;23;20087;-83
2022/06/25 04:18:19;;;;;;;8.45;5.78;;;16.50;99.90;;;;;;6246189;23;20231;-83
2022/06/25 04:20:45;;;;;;;8.05;6.72;;;16.40;99.90;;;;;;6193665;23;20016;-86
2022/06/25 04:23:11;;;;;;;7.07;5.88;;;16.50;99.90;;;;;;6245883;23;20013;-82
2022/06/25 04:25:37;;;;;;;8.52;5.68;;;16.40;99.90;;;;;;6245992;23;20012;-82
2022/06/25 04:30:48;;;;;;;13.38;5.72;;;16.50;99.90;;;;;;6176076;23;20024;-83
2022/06/25 04:33:14;;;;;;;7.27;5.33;;;16.50;99.90;;;;;;6193919;23;20020;-82
2022/06/25 04:35:40;;;;;;;7.75;6.10;;;16.60;99.90;;;;;;6245719;23;20012;-82
2022/06/25 04:38:06;;;;;;;7.05;5.90;;;16.60;99.90;;;;;;6218357;23;20504;-82
2022/06/25 04:40:32;;;;;;;6.50;5.55;;;16.70;99.90;;;;;;6193734;23;20453;-83
2022/06/25 04:42:57;;;;;;;6.00;5.10;;;16.70;99.90;;;;;;6218151;23;20024;-83
2022/06/25 04:45:23;;;;;;;8.70;5.33;;;16.70;99.90;;;;;;6245504;23;20016;-82
2022/06/25 04:47:49;;;;;;;5.47;4.90;;;16.70;99.90;;;;;;6244729;23;20315;-83
2022/06/25 04:50:14;;;;;;;10.30;5.65;;;16.70;99.90;;;;;;6194086;23;20251;-83
2022/06/25 04:52:40;;;;;;;4.97;4.20;;;16.80;99.90;;;;;;6144410;23;20460;-82
2022/06/25 04:55:06;;;;;;;6.28;5.15;;;16.80;99.90;;;;;;6245118;23;20074;-83
2022/06/25 04:57:32;;;;;;;7.20;4.80;;;16.90;99.90;;;;;;6245507;23;20020;-82
2022/06/25 04:59:58;;;;;;;7.20;5.07;;;16.90;99.90;;;;;;6245024;23;20027;-83
2022/06/25 05:02:24;;;;;;;7.75;4.90;;;17.00;99.90;;;;;;6193921;23;20020;-83
2022/06/25 05:04:50;;;;;;;;;;;17.00;99.90;;;;;;6245560;23;20059;-87
2022/06/25 05:07:15;;;;;;;4.35;3.95;;;17.10;99.90;;;;;;6218525;23;20335;-83
2022/06/25 05:09:41;;;;;;;5.73;4.70;;;17.10;99.90;;;;;;6218679;23;20020;-83
2022/06/25 05:12:07;;;;;;;7.60;5.25;;;17.20;99.90;;;;;;6245042;23;20020;-83
2022/06/25 05:14:33;;;;;;;6.30;4.60;;;17.20;99.90;;;;;;6218529;23;20012;-83
2022/06/25 05:16:58;;;;;;;5.83;5.07;;;17.30;99.90;;;;;;6218170;23;20012;-83
2022/06/25 05:19:24;;;;;;;6.70;4.03;;;17.40;99.90;;;;;;6193540;23;20020;-83
2022/06/25 05:21:50;;;;;;;5.25;4.55;;;17.50;99.90;;;;;;6218687;23;20016;-82
2022/06/25 05:24:16;;;;;;;8.07;4.55;;;17.50;99.90;;;;;;6244778;23;20016;-82
2022/06/25 05:26:41;;;;;;;4.88;4.35;;;17.70;99.90;;;;;;6218465;23;20390;-82
2022/06/25 05:29:07;;;;;;;5.95;4.28;;;17.70;99.90;;;;;;6244823;23;20096;-83
2022/06/25 05:31:33;;;;;;;4.68;4.22;;;17.80;99.90;;;;;;6218237;23;20463;-83
2022/06/25 05:33:59;;;;;;;5.93;4.88;;;17.90;99.90;;;;;;6192816;23;20029;-83
2022/06/25 05:36:24;;;;;;;8.52;4.25;;;17.90;99.90;;;;;;6245221;23;20384;-83
2022/06/25 05:38:50;;;;;;;4.75;4.10;;;18.00;99.90;;;;;;6218445;23;20016;-82
2022/06/25 05:41:16;;;;;;;5.05;3.95;;;18.00;99.90;;;;;;6218098;23;20016;-83
2022/06/25 05:43:42;;;;;;;4.85;4.40;;;18.10;99.90;;;;;;6245184;23;20445;-83
2022/06/25 05:46:08;;;;;;;3.97;3.47;;;18.20;99.90;;;;;;6244564;23;20077;-82
2022/06/25 05:48:34;;;;;;;4.82;4.18;;;18.20;99.90;;;;;;6218557;23;20066;-83
2022/06/25 05:51:00;;;;;;;;;;;18.30;99.90;;;;;;6193004;23;20016;-83
2022/06/25 05:53:26;;;;;;;4.10;3.70;;;18.40;99.90;;;;;;6218739;23;19946;-83
2022/06/25 05:55:52;;;;;;;6.05;3.50;;;18.40;99.90;;;;;;6219197;23;20008;-83
2022/06/25 05:58:19;;;;;;;5.38;4.00;;;18.50;99.90;;;;;;6219928;23;20024;-83
2022/06/25 06:00:46;;;;;;;7.28;4.75;;;18.50;99.90;;;;;;6194906;23;20095;-83
2022/06/25 06:03:11;;;;;;;5.30;4.22;;;18.60;99.90;;;;;;6194667;23;20039;-83
2022/06/25 06:05:40;;;;;;;4.35;3.40;;;18.60;99.90;;;;;;6246623;23;20594;-83
2022/06/25 06:08:07;;;;;;;4.80;4.00;;;18.70;99.90;;;;;;6219858;23;20444;-83
2022/06/25 06:10:32;;;;;;;;;;;18.80;99.90;;;;;;6247578;23;20102;-83
2022/06/25 06:12:58;;;;;;;4.38;3.63;;;18.80;99.90;;;;;;6219774;23;19995;-84
2022/06/25 06:15:24;;;;;;;4.13;3.35;;;18.90;99.90;;;;;;6170578;23;20331;-83
2022/06/25 06:17:49;;;;;;;4.43;3.42;;;19.00;99.90;;;;;;6194739;23;20106;-83
2022/06/25 06:20:15;;;;;;;5.43;3.78;;;19.10;99.90;;;;;;6194734;23;20016;-83
2022/06/25 06:22:44;;;;;;;4.53;3.72;;;19.20;99.90;;;;;;6194941;23;20012;-83
2022/06/25 06:25:09;;;;;;;3.97;3.30;;;19.20;99.90;;;;;;6246289;23;20012;-83
2022/06/25 06:27:35;;;;;;;3.65;2.95;;;19.20;99.90;;;;;;6220280;23;20040;-83
2022/06/25 06:30:01;;;;;;;4.93;3.58;;;19.30;99.90;;;;;;6194369;23;20020;-84
2022/06/25 06:32:27;;;;;;;3.78;3.22;;;19.30;99.90;;;;;;6220195;23;20077;-83
2022/06/25 06:34:52;;;;;;;5.57;3.25;;;19.30;99.90;;;;;;6195069;23;20082;-83
2022/06/25 06:37:18;;;;;;;4.60;3.40;;;19.30;99.90;;;;;;6219504;23;20093;-83
2022/06/25 06:39:44;;;;;;;5.03;3.63;;;19.40;99.90;;;;;;6195024;23;20396;-83
2022/06/25 06:42:10;;;;;;;5.07;3.00;;;19.50;99.90;;;;;;6219794;23;20024;-83
2022/06/25 06:44:35;;;;;;;4.40;3.33;;;19.60;99.90;;;;;;6219660;23;20101;-84
2022/06/25 06:47:01;;;;;;;5.97;3.22;;;19.70;99.90;;;;;;6195060;23;20024;-83
2022/06/25 06:49:27;;;;;;;4.93;2.40;;;20.10;99.90;;;;;;6246918;23;20077;-83
2022/06/25 06:51:52;;;;;;;4.95;3.22;;;19.80;99.90;;;;;;6219821;23;20016;-83
2022/06/25 06:54:18;;;;;;;4.75;2.78;;;19.90;99.90;;;;;;6194531;23;20027;-83
2022/06/25 06:56:44;;;;;;;4.72;3.20;;;19.90;99.90;;;;;;6170217;23;20016;-83
2022/06/25 06:59:09;;;;;;;5.55;2.83;;;20.00;99.90;;;;;;6219629;23;20020;-83
2022/06/25 07:01:35;;;;;;;3.15;2.78;;;20.10;99.90;;;;;;6220074;23;20097;-83
2022/06/25 07:04:01;;;;;;;3.17;2.72;;;20.20;99.90;;;;;;6219386;23;20012;-83
2022/06/25 07:06:26;;;;;;;5.47;2.00;;;20.30;99.90;;;;;;6245870;23;20020;-83
2022/06/25 07:08:52;;;;;;;2.92;2.33;;;20.30;99.90;;;;;;6194804;23;20078;-83
2022/06/25 07:11:29;;;;;;;2.88;2.20;;;20.30;99.90;;;;;;6219205;23;20423;-83
2022/06/25 07:14:00;;;;;;;4.72;2.08;;;20.40;99.90;;;;;;6150194;23;20020;-83
2022/06/25 07:16:28;;;;;;;4.75;1.95;;;20.40;99.90;;;;;;6219346;23;20024;-84
2022/06/25 07:18:56;;;;;;;4.20;2.60;;;20.50;99.90;;;;;;6246485;23;20020;-83
2022/06/25 07:21:22;;;;;;;2.17;1.98;;;20.50;99.90;;;;;;6219166;23;20362;-84
2022/06/25 07:23:48;;;;;;;3.20;2.38;;;20.60;99.90;;;;;;6194831;23;20075;-84
2022/06/25 07:26:14;;;;;;;2.70;1.63;;;20.70;99.90;;;;;;6245865;23;20012;-84
2022/06/25 07:28:40;;;;;;;3.85;1.90;;;20.60;99.90;;;;;;6219489;23;20444;-83
2022/06/25 07:31:06;;;;;;;2.42;1.85;;;20.70;99.90;;;;;;6246362;23;20027;-83
2022/06/25 07:33:32;;;;;;;2.40;1.35;;;20.60;99.90;;;;;;6246524;23;20521;-84
2022/06/25 07:35:58;;;;;;;2.33;1.60;;;20.70;99.90;;;;;;6194209;23;20044;-84
2022/06/25 07:38:23;;;;;;;3.03;1.90;;;20.80;99.90;;;;;;6193644;23;20048;-83
2022/06/25 07:40:50;;;;;;;2.22;2.00;;;20.80;99.90;;;;;;6194414;23;20070;-83
2022/06/25 07:43:16;;;;;;;1.42;1.27;;;20.90;99.90;;;;;;6194183;23;20016;-84
2022/06/25 07:45:42;;;;;;;3.55;2.10;;;20.90;99.90;;;;;;6194330;23;20059;-83
2022/06/25 07:48:08;;;;;;;3.80;1.88;;;21.00;99.90;;;;;;6246165;23;20020;-83
2022/06/25 07:53:19;;;;;;;2.78;1.80;;;21.00;99.90;;;;;;6197429;23;20026;-83
2022/06/25 07:55:45;;;;;;;2.67;1.92;;;21.00;99.90;;;;;;6246201;23;20016;-83
2022/06/25 07:58:10;;;;;;;2.30;1.80;;;21.10;99.90;;;;;;6218974;23;20019;-86
2022/06/25 08:00:37;;;;;;;3.17;2.13;;;21.10;99.90;;;;;;6194206;23;20437;-83
2022/06/25 08:03:04;;;;;;;2.13;1.90;;;21.10;99.90;;;;;;6219326;23;20449;-83
2022/06/25 08:05:29;;;;;;;2.05;1.85;;;21.20;99.90;;;;;;6219007;23;20035;-84
2022/06/25 08:07:55;;;;;;;3.53;2.28;;;21.20;99.90;;;;;;6245965;23;20058;-83
2022/06/25 08:10:22;;;;;;;1.75;1.50;;;21.20;99.90;;;;;;6168975;23;20024;-83
2022/06/25 08:12:47;;;;;;;4.45;2.25;;;21.20;99.90;;;;;;6219267;23;20012;-83
2022/06/25 08:15:13;;;;;;;1.92;1.42;;;21.20;99.90;;;;;;6218610;23;20155;-84
2022/06/25 08:17:39;;;;;;;1.80;1.70;;;21.30;99.90;;;;;;6193720;23;20334;-83
2022/06/25 08:20:05;;;;;;;1.73;1.63;;;21.30;99.90;;;;;;6193563;23;20020;-83
2022/06/25 08:22:31;;;;;;;3.83;1.67;;;21.30;99.90;;;;;;6244896;23;20012;-83
2022/06/25 08:24:57;;;;;;;1.88;1.70;;;21.30;99.90;;;;;;6169143;23;20024;-83
2022/06/25 08:27:22;;;;;;;2.05;1.38;;;21.40;99.90;;;;;;6193396;23;20047;-83
2022/06/25 08:29:49;;;;;;;3.83;1.50;;;21.40;99.90;;;;;;6245292;23;20024;-83
2022/06/25 08:32:15;;;;;;;2.00;1.80;;;21.40;99.90;;;;;;6243783;23;20081;-85
2022/06/25 08:34:40;;;;;;;3.13;1.70;;;21.40;99.90;;;;;;6169136;23;20089;-83
2022/06/25 08:37:06;;;;;;;2.65;1.42;;;21.50;99.90;;;;;;6219079;23;20019;-83
2022/06/25 08:39:32;;;;;;;1.25;1.23;;;21.60;99.90;;;;;;6218371;23;20024;-83
2022/06/25 08:42:03;;;;;;;2.97;2.22;;;21.70;99.90;;;;;;6218917;23;20023;-83
2022/06/25 08:44:30;;;;;;;2.90;1.80;;;21.80;99.90;;;;;;6218396;23;20074;-83
2022/06/25 08:46:56;;;;;;;1.70;1.60;;;21.90;99.90;;;;;;6218639;23;20503;-83
2022/06/25 08:49:23;;;;;;;1.38;1.27;;;21.90;99.90;;;;;;6193346;23;20028;-83
2022/06/25 08:51:52;;;;;;;1.80;1.55;;;21.90;99.90;;;;;;6218816;23;20395;-83
2022/06/25 08:54:19;;;;;;;3.75;1.33;;;21.80;99.90;;;;;;6193935;23;20023;-83
2022/06/25 08:56:46;;;;;;;2.25;1.05;;;21.70;99.90;;;;;;6144285;23;20016;-83
2022/06/25 08:59:12;;;;;;;2.97;1.77;;;21.80;99.90;;;;;;6218817;23;20085;-83
2022/06/25 09:01:38;;;;;;;1.83;1.40;;;21.70;99.90;;;;;;6218123;23;20440;-83
2022/06/25 09:04:04;;;;;;;2.00;1.80;;;21.60;99.90;;;;;;6245678;23;20459;-83
2022/06/25 09:06:30;;;;;;;2.03;1.30;;;21.60;99.90;;;;;;6244773;23;20020;-83
2022/06/25 09:09:13;;;;;;;3.35;1.50;;;21.60;99.90;;;;;;6193476;23;20150;-83
2022/06/25 09:11:55;;;;;;;1.27;1.10;;;21.60;99.90;;;;;;6245067;23;20035;-83
2022/06/25 09:14:28;;;;;;;1.27;1.17;;;21.60;99.90;;;;;;6193030;23;20087;-84
2022/06/25 09:17:06;;;;;;;1.13;1.02;;;21.70;99.90;;;;;;6218063;23;20027;-83
2022/06/25 09:19:47;;;;;;;3.92;1.45;;;21.70;99.90;;;;;;6218043;23;20016;-83
2022/06/25 09:22:23;;;;;;;2.38;1.20;;;21.70;99.90;;;;;;6245255;23;20078;-83
2022/06/25 09:24:51;;;;;;;1.67;1.30;;;21.60;99.90;;;;;;6168543;23;20475;-83
2022/06/25 09:27:33;;;;;;;3.17;1.33;;;21.50;99.90;;;;;;6193051;23;20096;-83
2022/06/25 09:30:13;;;;;;;2.88;1.63;;;21.50;99.90;;;;;;6218246;23;20012;-83
2022/06/25 09:32:54;;;;;;;1.63;1.30;;;21.60;99.90;;;;;;6192918;23;20111;-83
2022/06/25 09:35:35;;;;;;;3.25;1.35;;;21.80;99.90;;;;;;6193543;23;20055;-83
2022/06/25 09:38:09;;;;;;;2.72;1.67;;;21.80;99.90;;;;;;6218786;23;20388;-83
2022/06/25 09:40:36;;;;;;;2.05;1.20;;;21.70;99.90;;;;;;6218035;23;20376;-83
2022/06/25 09:43:22;;;;;;;1.42;1.17;;;21.70;99.90;;;;;;6218416;23;20017;-83
2022/06/25 09:45:50;;;;;;;1.23;1.15;;;21.70;99.90;;;;;;6218515;23;20433;-83
2022/06/25 09:48:20;;;;;;;1.25;1.17;;;21.70;99.90;;;;;;6218473;23;20071;-83
2022/06/25 09:51:09;;;;;;;1.85;1.40;;;21.70;99.90;;;;;;6217818;23;20069;-83
2022/06/25 09:53:45;;;;;;;2.60;1.52;;;21.80;99.90;;;;;;6192786;23;20510;-83
2022/06/25 09:56:13;;;;;;;1.77;1.50;;;21.90;99.90;;;;;;6218496;23;20016;-83
2022/06/25 09:58:43;;;;;;;2.55;1.80;;;22.00;99.90;;;;;;6217894;23;20016;-83
2022/06/25 10:01:09;;;;;;;0.80;0.80;;;22.00;99.90;;;;;;6193237;23;20073;-83
2022/06/25 10:03:36;;;;;;;;;;;22.10;99.90;;;;;;6193181;23;20031;-83
2022/06/25 10:06:02;;;;;;;1.27;1.17;;;22.00;99.90;;;;;;6218311;23;19999;-83
2022/06/25 10:08:29;;;;;;;1.00;1.00;;;22.00;99.90;;;;;;6244477;23;20019;-83
2022/06/25 10:10:56;;;;;;;1.88;1.63;;;22.10;99.90;;;;;;6218372;23;20012;-83
2022/06/25 10:13:23;;;;;;;1.13;1.02;;;22.20;99.90;;;;;;6193779;23;20013;-83
2022/06/25 10:15:49;;;;;;;;;;;22.20;99.90;;;;;;6192607;23;20055;-83
2022/06/25 10:18:15;;;;;;;5.82;1.73;;;22.30;99.90;;;;;;6218286;23;19915;-83
2022/06/25 10:20:42;;;;;;;1.35;1.23;;;22.40;99.90;;;;;;6192792;23;20095;-83
2022/06/25 10:23:09;;;;;;;6.75;1.33;;;22.40;99.90;;;;;;6192735;23;20024;-83
2022/06/25 10:25:36;;;;;;;1.90;1.35;;;22.40;99.90;;;;;;6217475;23;20016;-83
2022/06/25 10:28:03;;;;;;;2.67;1.30;;;22.50;99.90;;;;;;6218145;23;20015;-82
2022/06/25 10:30:49;;;;;;;1.75;1.02;;;22.60;99.90;;;;;;6217422;23;20024;-83
2022/06/25 10:33:18;;;;;;;1.63;1.08;;;22.70;99.90;;;;;;6193066;23;20474;-83
2022/06/25 10:35:46;;;;;;;2.08;1.45;;;22.70;99.90;;;;;;6217823;23;20411;-83
2022/06/25 10:38:16;;;;;;;1.75;1.50;;;22.70;99.90;;;;;;6217641;23;20016;-83
2022/06/25 10:40:49;;;;;;;1.90;1.30;;;22.80;99.90;;;;;;6244455;23;20099;-83
2022/06/25 10:43:45;;;;;;;2.50;1.23;;;22.70;99.90;;;;;;6220348;23;20025;-82
2022/06/25 10:46:32;;;;;;;1.90;1.80;;;22.70;99.90;;;;;;6219898;23;20437;-82
2022/06/25 10:49:08;;;;;;;2.57;1.93;;;22.80;99.90;;;;;;6220158;23;20020;-82
2022/06/25 10:51:48;;;;;;;2.13;1.20;;;22.90;99.90;;;;;;6219515;23;20019;-83
2022/06/25 10:54:34;;;;;;;2.92;1.30;;;22.90;99.90;;;;;;6219898;23;20023;-83
2022/06/25 10:57:00;;;;;;;0.88;0.85;;;23.00;99.90;;;;;;6220048;23;20321;-82
2022/06/25 10:59:33;;;;;;;1.02;1.00;;;23.20;99.90;;;;;;6170015;23;20012;-83
2022/06/25 11:02:00;;;;;;;1.52;0.85;;;23.30;99.90;;;;;;6194658;23;20073;-83
2022/06/25 11:04:30;;;;;;;1.48;1.38;;;23.30;99.90;;;;;;6194959;23;20379;-82
2022/06/25 11:07:19;;;;;;;1.35;1.10;;;23.30;99.90;;;;;;6246075;23;20099;-82
2022/06/25 11:09:57;;;;;;;1.38;1.10;;;23.30;99.90;;;;;;6219390;23;20090;-83
2022/06/25 11:12:24;;;;;;;1.67;1.25;;;23.40;99.90;;;;;;6219413;23;20024;-82
2022/06/25 11:15:10;;;;;;;2.08;1.95;;;23.40;99.90;;;;;;6194005;23;20012;-83
2022/06/25 11:17:36;;;;;;;3.13;1.33;;;23.40;99.90;;;;;;6193336;23;20027;-83
2022/06/25 11:20:10;;;;;;;1.73;1.10;;;23.50;99.90;;;;;;6219765;23;20350;-82
2022/06/25 11:22:51;;;;;;;1.33;0.63;;;23.60;99.90;;;;;;6219234;23;20074;-83
2022/06/25 11:30:49;;;;;;;1.13;0.90;;;23.70;99.90;;;;;;6213809;23;20034;-82
2022/06/25 11:33:15;;;;;;;1.40;1.30;;;23.70;99.90;;;;;;6214456;23;20106;-82
2022/06/25 11:35:44;;;;;;;1.73;1.17;;;23.50;99.90;;;;;;6214063;23;20376;-84
2022/06/25 11:38:17;;;;;;;1.23;0.90;;;23.30;99.90;;;;;;6215989;23;20023;-83
2022/06/25 11:40:43;;;;;;;1.77;1.20;;;23.30;99.90;;;;;;6189012;23;20027;-83
2022/06/25 11:43:09;;;;;;;;;;;23.20;99.90;;;;;;6214953;23;20060;-83
2022/06/25 11:45:52;;;;;;;1.10;1.00;;;23.10;99.90;;;;;;6214302;23;19939;-83
2022/06/25 11:48:19;;;;;;;2.05;0.90;;;23.10;99.90;;;;;;6214290;23;20074;-83
2022/06/25 11:50:44;;;;;;;;;;;23.00;99.90;;;;;;6214286;23;20476;-83
2022/06/25 11:53:11;;;;;;;1.35;1.23;;;23.10;99.90;;;;;;6188701;23;19916;-83
2022/06/25 11:55:40;;;;;;;1.80;1.20;;;23.20;99.90;;;;;;6214445;23;20446;-82
2022/06/25 11:58:05;;;;;;;2.10;0.90;;;23.30;99.90;;;;;;6214342;23;20021;-82
2022/06/25 12:00:31;;;;;;;0.88;0.88;;;23.20;99.90;;;;;;6214214;23;20023;-83
2022/06/25 12:03:04;;;;;;;3.15;0.85;;;23.10;99.90;;;;;;6188814;23;20027;-83
2022/06/25 12:05:32;;;;;;;1.55;1.05;;;23.00;99.90;;;;;;6213998;23;20092;-82
2022/06/25 12:07:58;;;;;;;3.45;1.15;;;22.90;99.90;;;;;;6213572;23;20044;-83
2022/06/25 12:10:24;;;;;;;0.93;0.60;;;22.90;99.90;;;;;;6188656;23;20032;-83
2022/06/25 12:12:52;;;;;;;2.22;0.98;;;22.80;99.90;;;;;;6188338;23;20016;-83
2022/06/25 12:15:18;;;;;;;3.03;1.00;;;22.80;99.90;;;;;;6213999;23;20024;-83
2022/06/25 12:17:44;;;;;;;1.02;1.00;;;22.70;99.90;;;;;;6188545;23;20025;-84
2022/06/25 12:20:14;;;;;;;0.98;0.98;;;22.70;99.90;;;;;;6214442;23;20389;-83
2022/06/25 12:22:43;;;;;;;3.70;0.98;;;22.60;99.90;;;;;;6188536;23;20048;-83
2022/06/25 12:25:10;;;;;;;1.67;0.85;;;22.50;99.90;;;;;;6214073;23;20191;-83
2022/06/25 12:27:49;;;;;;;1.80;1.08;;;22.10;99.90;;;;;;6213913;23;20017;-82
2022/06/25 12:30:26;;;;;;;1.63;1.20;;;22.40;99.90;;;;;;6191388;23;20087;-83
2022/06/25 12:32:53;;;;;;;;;;;22.30;99.90;;;;;;6218996;23;20031;-83
2022/06/25 12:35:24;;;;;;;0.90;0.90;;;22.30;99.90;;;;;;6193762;23;19926;-83
2022/06/25 12:38:00;;;;;;;1.20;1.10;;;22.20;99.90;;;;;;6218579;23;20020;-83
2022/06/25 12:40:26;;;;;;;3.75;1.33;;;22.20;99.90;;;;;;6218939;23;20019;-83
2022/06/25 12:42:56;;;;;;;;;;;22.20;99.90;;;;;;6193627;23;20024;-83
2022/06/25 12:45:22;;;;;;;1.40;1.10;;;22.10;99.90;;;;;;6193752;23;19939;-83
2022/06/25 12:47:48;;;;;;;1.83;1.45;;;22.10;99.90;;;;;;6217989;23;20024;-83
2022/06/25 12:50:22;;;;;;;2.95;2.05;;;22.00;99.90;;;;;;6218890;23;20031;-83
2022/06/25 12:52:48;;;;;;;1.75;1.33;;;22.00;99.90;;;;;;6218177;23;20027;-84
2022/06/25 12:55:22;;;;;;;2.65;1.70;;;22.00;99.90;;;;;;6218416;23;20110;-83
2022/06/25 12:57:49;;;;;;;1.60;1.50;;;22.00;99.90;;;;;;6245085;23;20031;-83
2022/06/25 13:00:23;;;;;;;1.35;1.23;;;21.90;99.90;;;;;;6194056;23;20016;-83
2022/06/25 13:02:50;;;;;;;2.67;1.48;;;21.90;99.90;;;;;;6193137;23;20498;-83
2022/06/25 13:05:16;;;;;;;;;;;21.90;99.90;;;;;;6218942;23;20016;-83
2022/06/25 13:07:42;;;;;;;1.50;1.08;;;21.90;99.90;;;;;;6218518;23;19994;-83